createdAt,value
2016-05-06T00:00:00.945Z,14
2016-05-06T00:00:10.945Z,14
2016-05-06T00:00:20.931Z,14
2016-05-06T00:00:30.931Z,14
2016-05-06T00:00:40.931Z,14
2016-05-06T00:00:50.931Z,14
2016-05-06T00:01:00.916Z,14
2016-05-06T00:01:10.900Z,14
2016-05-06T00:01:20.746Z,14
2016-05-06T00:01:30.886Z,14
2016-05-06T00:01:40.746Z,14
2016-05-06T00:01:50.886Z,14
2016-05-06T00:02:00.730Z,14
2016-05-06T00:02:10.886Z,14
2016-05-06T00:02:20.734Z,14
2016-05-06T00:02:30.875Z,14
2016-05-06T00:02:40.875Z,14
2016-05-06T00:02:50.859Z,14
2016-05-06T00:03:00.859Z,14
2016-05-06T00:03:10.843Z,14
2016-05-06T00:03:20.706Z,14
2016-05-06T00:03:30.690Z,14
2016-05-06T00:03:40.690Z,14
2016-05-06T00:03:50.831Z,14
2016-05-06T00:04:00.878Z,14
2016-05-06T00:04:10.831Z,14
2016-05-06T00:04:20.677Z,14
2016-05-06T00:04:30.677Z,14
2016-05-06T00:04:40.817Z,14
2016-05-06T00:04:50.661Z,14
2016-05-06T00:05:00.802Z,14
2016-05-06T00:05:10.802Z,14
2016-05-06T00:05:20.788Z,14
2016-05-06T00:05:30.788Z,14
2016-05-06T00:05:40.788Z,13.9
2016-05-06T00:05:50.772Z,13.9
2016-05-06T00:06:00.772Z,13.9
2016-05-06T00:06:10.772Z,13.9
2016-05-06T00:06:20.619Z,13.9
2016-05-06T00:06:30.447Z,13.9
2016-05-06T00:06:40.775Z,13.9
2016-05-06T00:06:50.760Z,13.9
2016-05-06T00:07:00.744Z,13.9
2016-05-06T00:07:10.588Z,13.9
2016-05-06T00:07:20.730Z,13.9
2016-05-06T00:07:30.730Z,13.9
2016-05-06T00:07:40.730Z,13.9
2016-05-06T00:07:50.715Z,13.9
2016-05-06T00:08:00.574Z,13.9
2016-05-06T00:08:10.559Z,13.9
2016-05-06T00:08:20.719Z,13.9
2016-05-06T00:08:30.734Z,13.9
2016-05-06T00:08:40.703Z,13.9
2016-05-06T00:08:50.703Z,13.9
2016-05-06T00:09:00.688Z,13.9
2016-05-06T00:09:10.547Z,13.9
2016-05-06T00:09:20.690Z,13.9
2016-05-06T00:09:30.674Z,13.9
2016-05-06T00:09:40.518Z,13.9
2016-05-06T00:09:50.518Z,13.9
2016-05-06T00:10:00.518Z,13.9
2016-05-06T00:10:10.518Z,13.9
2016-05-06T00:10:20.739Z,13.9
2016-05-06T00:10:30.974Z,13.9
2016-05-06T00:10:41.193Z,13.9
2016-05-06T00:10:50.661Z,13.9
2016-05-06T00:11:00.646Z,13.9
2016-05-06T00:11:10.318Z,13.9
2016-05-06T00:11:20.491Z,13.9
2016-05-06T00:11:30.632Z,13.9
2016-05-06T00:11:40.616Z,13.9
2016-05-06T00:11:50.632Z,13.9
2016-05-06T00:12:00.616Z,13.9
2016-05-06T00:12:10.445Z,13.9
2016-05-06T00:12:21.792Z,13.9
2016-05-06T00:12:30.449Z,13.9
2016-05-06T00:12:40.605Z,13.9
2016-05-06T00:12:51.542Z,13.9
2016-05-06T00:13:00.589Z,13.9
2016-05-06T00:13:10.589Z,13.9
2016-05-06T00:13:20.576Z,13.9
2016-05-06T00:13:30.419Z,13.9
2016-05-06T00:13:40.576Z,13.9
2016-05-06T00:13:50.560Z,13.9
2016-05-06T00:14:00.560Z,13.9
2016-05-06T00:14:10.388Z,13.9
2016-05-06T00:14:20.391Z,13.9
2016-05-06T00:14:30.110Z,13.9
2016-05-06T00:14:40.391Z,13.9
2016-05-06T00:14:50.375Z,13.9
2016-05-06T00:15:00.532Z,13.9
2016-05-06T00:15:10.360Z,13.9
2016-05-06T00:15:20.518Z,13.9
2016-05-06T00:15:30.377Z,13.9
2016-05-06T00:15:40.502Z,13.9
2016-05-06T00:15:50.534Z,13.9
2016-05-06T00:16:00.502Z,13.9
2016-05-06T00:16:10.346Z,13.9
2016-05-06T00:16:20.349Z,13.9
2016-05-06T00:16:30.334Z,13.9
2016-05-06T00:16:40.490Z,13.9
2016-05-06T00:16:50.334Z,13.9
2016-05-06T00:17:00.474Z,13.9
2016-05-06T00:17:10.459Z,13.8
2016-05-06T00:17:20.336Z,13.8
2016-05-06T00:17:30.476Z,13.8
2016-05-06T00:17:40.461Z,13.8
2016-05-06T00:17:50.461Z,13.8
2016-05-06T00:18:00.273Z,13.8
2016-05-06T00:18:10.445Z,13.7
2016-05-06T00:18:20.433Z,13.7
2016-05-06T00:18:30.433Z,13.7
2016-05-06T00:18:40.449Z,13.7
2016-05-06T00:18:50.433Z,13.7
2016-05-06T00:19:00.418Z,13.7
2016-05-06T00:19:10.418Z,13.8
2016-05-06T00:19:20.404Z,13.8
2016-05-06T00:19:30.404Z,13.7
2016-05-06T00:19:40.388Z,13.8
2016-05-06T00:19:50.404Z,13.8
2016-05-06T00:20:00.388Z,13.8
2016-05-06T00:20:10.420Z,13.8
2016-05-06T00:20:20.390Z,13.8
2016-05-06T00:20:30.390Z,13.8
2016-05-06T00:20:40.227Z,13.8
2016-05-06T00:20:50.368Z,13.8
2016-05-06T00:21:00.212Z,13.8
2016-05-06T00:21:10.368Z,13.8
2016-05-06T00:21:20.372Z,13.8
2016-05-06T00:21:30.372Z,13.8
2016-05-06T00:21:40.185Z,13.8
2016-05-06T00:21:50.185Z,13.7
2016-05-06T00:22:00.341Z,13.7
2016-05-06T00:22:10.341Z,13.7
2016-05-06T00:22:20.343Z,13.7
2016-05-06T00:22:30.327Z,13.7
2016-05-06T00:22:40.327Z,13.7
2016-05-06T00:22:50.171Z,13.7
2016-05-06T00:23:00.155Z,13.7
2016-05-06T00:23:10.296Z,13.7
2016-05-06T00:23:20.002Z,13.7
2016-05-06T00:23:30.143Z,13.7
2016-05-06T00:23:40.299Z,13.7
2016-05-06T00:23:50.299Z,13.7
2016-05-06T00:24:00.283Z,13.7
2016-05-06T00:24:10.283Z,13.7
2016-05-06T00:24:20.285Z,13.7
2016-05-06T00:24:30.285Z,13.7
2016-05-06T00:24:40.113Z,13.7
2016-05-06T00:24:50.254Z,13.7
2016-05-06T00:25:00.238Z,13.8
2016-05-06T00:25:10.238Z,13.8
2016-05-06T00:25:20.257Z,13.8
2016-05-06T00:25:30.101Z,13.8
2016-05-06T00:25:41.882Z,13.8
2016-05-06T00:25:50.241Z,13.8
2016-05-06T00:26:00.226Z,13.8
2016-05-06T00:26:10.210Z,13.8
2016-05-06T00:26:20.073Z,13.8
2016-05-06T00:26:30.244Z,13.8
2016-05-06T00:26:40.057Z,13.8
2016-05-06T00:26:50.198Z,13.8
2016-05-06T00:27:00.057Z,13.8
2016-05-06T00:27:10.182Z,13.8
2016-05-06T00:27:20.044Z,13.8
2016-05-06T00:27:30.201Z,13.7
2016-05-06T00:27:40.185Z,13.8
2016-05-06T00:27:50.185Z,13.7
2016-05-06T00:28:00.169Z,13.7
2016-05-06T00:28:10.169Z,13.7
2016-05-06T00:28:20.171Z,13.7
2016-05-06T00:28:30.171Z,13.7
2016-05-06T00:28:40.171Z,13.7
2016-05-06T00:28:50.015Z,13.7
2016-05-06T00:29:00.140Z,13.7
2016-05-06T00:29:10.140Z,13.7
2016-05-06T00:29:20.127Z,13.7
2016-05-06T00:29:30.127Z,13.7
2016-05-06T00:29:40.143Z,13.7
2016-05-06T00:29:50.112Z,13.8
2016-05-06T00:29:59.956Z,13.8
2016-05-06T00:30:10.112Z,13.8
2016-05-06T00:30:19.959Z,13.8
2016-05-06T00:30:30.099Z,13.8
2016-05-06T00:30:40.115Z,13.7
2016-05-06T00:30:49.943Z,13.8
2016-05-06T00:31:00.084Z,13.8
2016-05-06T00:31:09.943Z,13.7
2016-05-06T00:31:20.086Z,13.7
2016-05-06T00:31:30.070Z,13.7
2016-05-06T00:31:40.070Z,13.7
2016-05-06T00:31:50.070Z,13.8
2016-05-06T00:31:59.914Z,13.8
2016-05-06T00:32:09.914Z,13.7
2016-05-06T00:32:20.057Z,13.7
2016-05-06T00:32:30.057Z,13.7
2016-05-06T00:32:40.042Z,13.7
2016-05-06T00:32:49.885Z,13.7
2016-05-06T00:33:00.042Z,13.7
2016-05-06T00:33:10.026Z,13.7
2016-05-06T00:33:20.029Z,13.7
2016-05-06T00:33:30.185Z,13.8
2016-05-06T00:33:39.873Z,13.8
2016-05-06T00:33:50.013Z,13.7
2016-05-06T00:33:59.857Z,13.7
2016-05-06T00:34:09.998Z,13.7
2016-05-06T00:34:19.844Z,13.7
2016-05-06T00:34:30.000Z,13.7
2016-05-06T00:34:40.000Z,13.7
2016-05-06T00:34:49.984Z,13.7
2016-05-06T00:34:59.969Z,13.7
2016-05-06T00:35:09.969Z,13.7
2016-05-06T00:35:19.988Z,13.7
2016-05-06T00:35:29.832Z,13.7
2016-05-06T00:35:39.816Z,13.7
2016-05-06T00:35:49.973Z,13.7
2016-05-06T00:35:59.957Z,13.7
2016-05-06T00:36:09.801Z,13.7
2016-05-06T00:36:19.959Z,13.7
2016-05-06T00:36:29.943Z,13.7
2016-05-06T00:36:39.943Z,13.7
2016-05-06T00:36:49.928Z,13.7
2016-05-06T00:36:59.928Z,13.7
2016-05-06T00:37:09.928Z,13.7
2016-05-06T00:37:19.914Z,13.7
2016-05-06T00:37:29.930Z,13.7
2016-05-06T00:37:39.898Z,13.7
2016-05-06T00:37:49.742Z,13.7
2016-05-06T00:37:59.898Z,13.7
2016-05-06T00:38:09.742Z,13.7
2016-05-06T00:38:19.886Z,13.7
2016-05-06T00:38:29.745Z,13.7
2016-05-06T00:38:39.745Z,13.7
2016-05-06T00:38:49.730Z,13.7
2016-05-06T00:38:59.886Z,13.7
2016-05-06T00:39:09.870Z,13.7
2016-05-06T00:39:19.698Z,13.7
2016-05-06T00:39:29.858Z,13.7
2016-05-06T00:39:39.873Z,13.7
2016-05-06T00:39:49.842Z,13.7
2016-05-06T00:39:59.858Z,13.7
2016-05-06T00:40:09.701Z,13.7
2016-05-06T00:40:20.063Z,13.7
2016-05-06T00:40:29.953Z,13.7
2016-05-06T00:40:39.672Z,13.7
2016-05-06T00:40:49.953Z,13.7
2016-05-06T00:41:00.328Z,13.7
2016-05-06T00:41:09.813Z,13.7
2016-05-06T00:41:19.656Z,13.7
2016-05-06T00:41:29.800Z,13.7
2016-05-06T00:41:39.800Z,13.7
2016-05-06T00:41:49.800Z,13.7
2016-05-06T00:41:59.784Z,13.7
2016-05-06T00:42:09.644Z,13.7
2016-05-06T00:42:19.787Z,13.7
2016-05-06T00:42:29.787Z,13.7
2016-05-06T00:42:39.631Z,13.7
2016-05-06T00:42:49.787Z,13.7
2016-05-06T00:42:59.756Z,13.7
2016-05-06T00:43:09.600Z,13.7
2016-05-06T00:43:19.741Z,13.7
2016-05-06T00:43:29.587Z,13.7
2016-05-06T00:43:39.744Z,13.7
2016-05-06T00:43:49.744Z,13.7
2016-05-06T00:43:59.744Z,13.7
2016-05-06T00:44:09.728Z,13.7
2016-05-06T00:44:19.728Z,13.6
2016-05-06T00:44:29.574Z,13.7
2016-05-06T00:44:39.402Z,13.7
2016-05-06T00:44:49.714Z,13.7
2016-05-06T00:44:59.699Z,13.7
2016-05-06T00:45:09.699Z,13.7
2016-05-06T00:45:19.714Z,13.7
2016-05-06T00:45:29.702Z,13.7
2016-05-06T00:45:39.686Z,13.7
2016-05-06T00:45:49.686Z,13.7
2016-05-06T00:45:59.670Z,13.7
2016-05-06T00:46:09.670Z,13.7
2016-05-06T00:46:19.514Z,13.7
2016-05-06T00:46:29.516Z,13.7
2016-05-06T00:46:39.657Z,13.7
2016-05-06T00:46:49.657Z,13.7
2016-05-06T00:46:59.672Z,13.7
2016-05-06T00:47:09.501Z,13.7
2016-05-06T00:47:19.641Z,13.7
2016-05-06T00:47:29.644Z,13.7
2016-05-06T00:47:39.629Z,13.7
2016-05-06T00:47:49.488Z,13.7
2016-05-06T00:47:59.629Z,13.7
2016-05-06T00:48:09.613Z,13.7
2016-05-06T00:48:19.613Z,13.7
2016-05-06T00:48:29.460Z,13.7
2016-05-06T00:48:39.600Z,13.7
2016-05-06T00:48:49.600Z,13.7
2016-05-06T00:48:59.585Z,13.7
2016-05-06T00:49:09.428Z,13.7
2016-05-06T00:49:19.600Z,13.7
2016-05-06T00:49:29.463Z,13.7
2016-05-06T00:49:39.588Z,13.7
2016-05-06T00:49:49.572Z,13.7
2016-05-06T00:49:59.431Z,13.7
2016-05-06T00:50:09.572Z,13.7
2016-05-06T00:50:19.556Z,13.7
2016-05-06T00:50:29.558Z,13.7
2016-05-06T00:50:39.402Z,13.7
2016-05-06T00:50:49.543Z,13.7
2016-05-06T00:50:59.527Z,13.7
2016-05-06T00:51:09.527Z,13.7
2016-05-06T00:51:19.512Z,13.7
2016-05-06T00:51:29.530Z,13.7
2016-05-06T00:51:39.515Z,13.7
2016-05-06T00:51:49.358Z,13.7
2016-05-06T00:51:59.515Z,13.7
2016-05-06T00:52:09.515Z,13.7
2016-05-06T00:52:19.499Z,13.7
2016-05-06T00:52:29.502Z,13.6
2016-05-06T00:52:39.346Z,13.7
2016-05-06T00:52:49.502Z,13.7
2016-05-06T00:52:59.486Z,13.6
2016-05-06T00:53:09.596Z,13.6
2016-05-06T00:53:19.471Z,13.6
2016-05-06T00:53:29.474Z,13.6
2016-05-06T00:53:39.458Z,13.6
2016-05-06T00:53:49.302Z,13.6
2016-05-06T00:53:59.317Z,13.6
2016-05-06T00:54:09.442Z,13.6
2016-05-06T00:54:19.302Z,13.6
2016-05-06T00:54:29.460Z,13.6
2016-05-06T00:54:39.444Z,13.6
2016-05-06T00:54:49.429Z,13.6
2016-05-06T00:54:59.429Z,13.6
2016-05-06T00:55:09.429Z,13.6
2016-05-06T00:55:20.916Z,13.6
2016-05-06T00:55:29.276Z,13.6
2016-05-06T00:55:39.322Z,13.6
2016-05-06T00:55:49.416Z,13.6
2016-05-06T00:55:59.416Z,13.6
2016-05-06T00:56:09.510Z,13.6
2016-05-06T00:56:19.385Z,13.6
2016-05-06T00:56:29.232Z,13.6
2016-05-06T00:56:39.388Z,13.6
2016-05-06T00:56:49.388Z,13.6
2016-05-06T00:56:59.060Z,13.6
2016-05-06T00:57:09.200Z,13.6
2016-05-06T00:57:19.372Z,13.6
2016-05-06T00:57:29.374Z,13.6
2016-05-06T00:57:39.359Z,13.6
2016-05-06T00:57:49.359Z,13.6
2016-05-06T00:57:59.343Z,13.6
2016-05-06T00:58:09.343Z,13.6
2016-05-06T00:58:19.343Z,13.6
2016-05-06T00:58:29.330Z,13.6
2016-05-06T00:58:39.346Z,13.6
2016-05-06T00:58:49.315Z,13.6
2016-05-06T00:58:59.330Z,13.6
2016-05-06T00:59:09.315Z,13.6
2016-05-06T00:59:19.315Z,13.6
2016-05-06T00:59:29.301Z,13.6
2016-05-06T00:59:39.301Z,13.6
2016-05-06T00:59:49.161Z,13.6
2016-05-06T00:59:59.286Z,13.6
2016-05-06T01:00:09.286Z,13.6
2016-05-06T01:00:19.286Z,13.6
2016-05-06T01:00:29.305Z,13.6
2016-05-06T01:00:39.133Z,13.6
2016-05-06T01:00:49.305Z,13.6
2016-05-06T01:00:59.102Z,13.6
2016-05-06T01:01:09.258Z,13.5
2016-05-06T01:01:19.258Z,13.5
2016-05-06T01:01:29.104Z,13.5
2016-05-06T01:01:39.260Z,13.5
2016-05-06T01:01:49.088Z,13.5
2016-05-06T01:01:59.245Z,13.5
2016-05-06T01:02:09.229Z,13.5
2016-05-06T01:02:19.073Z,13.5
2016-05-06T01:02:29.232Z,13.5
2016-05-06T01:02:39.216Z,13.5
2016-05-06T01:02:49.216Z,13.5
2016-05-06T01:02:59.216Z,13.5
2016-05-06T01:03:09.201Z,13.5
2016-05-06T01:03:19.201Z,13.5
2016-05-06T01:03:29.047Z,13.5
2016-05-06T01:03:39.187Z,13.5
2016-05-06T01:03:49.187Z,13.5
2016-05-06T01:03:59.187Z,13.5
2016-05-06T01:04:09.187Z,13.5
2016-05-06T01:04:19.187Z,13.5
2016-05-06T01:04:29.175Z,13.5
2016-05-06T01:04:39.159Z,13.5
2016-05-06T01:04:49.159Z,13.5
2016-05-06T01:04:59.159Z,13.5
2016-05-06T01:05:09.143Z,13.5
2016-05-06T01:05:18.846Z,13.5
2016-05-06T01:05:28.990Z,13.5
2016-05-06T01:05:38.974Z,13.5
2016-05-06T01:05:49.131Z,13.5
2016-05-06T01:05:59.131Z,13.5
2016-05-06T01:06:09.115Z,13.5
2016-05-06T01:06:19.131Z,13.5
2016-05-06T01:06:29.118Z,13.5
2016-05-06T01:06:39.118Z,13.5
2016-05-06T01:06:49.102Z,13.5
2016-05-06T01:06:59.102Z,13.5
2016-05-06T01:07:09.087Z,13.5
2016-05-06T01:07:18.931Z,13.5
2016-05-06T01:07:28.776Z,13.5
2016-05-06T01:07:39.104Z,13.5
2016-05-06T01:07:49.089Z,13.5
2016-05-06T01:07:58.917Z,13.5
2016-05-06T01:08:09.073Z,13.5
2016-05-06T01:08:18.917Z,13.5
2016-05-06T01:08:29.061Z,13.5
2016-05-06T01:08:39.061Z,13.5
2016-05-06T01:08:49.061Z,13.4
2016-05-06T01:08:59.045Z,13.5
2016-05-06T01:09:09.045Z,13.4
2016-05-06T01:09:19.029Z,13.4
2016-05-06T01:09:29.032Z,13.4
2016-05-06T01:09:39.032Z,13.4
2016-05-06T01:09:49.017Z,13.4
2016-05-06T01:09:59.017Z,13.4
2016-05-06T01:10:09.001Z,13.4
2016-05-06T01:10:19.548Z,13.4
2016-05-06T01:10:29.034Z,13.4
2016-05-06T01:10:39.581Z,13.4
2016-05-06T01:10:49.269Z,13.4
2016-05-06T01:10:59.237Z,13.4
2016-05-06T01:11:09.003Z,13.4
2016-05-06T01:11:18.831Z,13.4
2016-05-06T01:11:28.975Z,13.4
2016-05-06T01:11:38.819Z,13.4
2016-05-06T01:11:48.975Z,13.4
2016-05-06T01:11:58.944Z,13.4
2016-05-06T01:12:08.959Z,13.4
2016-05-06T01:12:18.944Z,13.4
2016-05-06T01:12:28.946Z,13.4
2016-05-06T01:12:38.805Z,13.4
2016-05-06T01:12:48.789Z,13.4
2016-05-06T01:12:58.930Z,13.4
2016-05-06T01:13:08.774Z,13.4
2016-05-06T01:13:18.789Z,13.4
2016-05-06T01:13:28.918Z,13.4
2016-05-06T01:13:38.918Z,13.4
2016-05-06T01:13:48.918Z,13.4
2016-05-06T01:13:58.903Z,13.5
2016-05-06T01:14:08.887Z,13.4
2016-05-06T01:14:18.903Z,13.4
2016-05-06T01:14:28.889Z,13.4
2016-05-06T01:14:38.733Z,13.4
2016-05-06T01:14:48.873Z,13.4
2016-05-06T01:14:58.717Z,13.4
2016-05-06T01:15:08.873Z,13.4
2016-05-06T01:15:18.858Z,13.5
2016-05-06T01:15:28.861Z,13.5
2016-05-06T01:15:38.705Z,13.5
2016-05-06T01:15:48.845Z,13.4
2016-05-06T01:15:58.705Z,13.4
2016-05-06T01:16:08.845Z,13.4
2016-05-06T01:16:18.673Z,13.4
2016-05-06T01:16:28.847Z,13.4
2016-05-06T01:16:38.847Z,13.4
2016-05-06T01:16:48.832Z,13.4
2016-05-06T01:16:58.660Z,13.4
2016-05-06T01:17:08.832Z,13.4
2016-05-06T01:17:18.800Z,13.4
2016-05-06T01:17:28.803Z,13.4
2016-05-06T01:17:38.647Z,13.4
2016-05-06T01:17:48.491Z,13.4
2016-05-06T01:17:58.803Z,13.4
2016-05-06T01:18:08.788Z,13.4
2016-05-06T01:18:18.631Z,13.4
2016-05-06T01:18:28.791Z,13.4
2016-05-06T01:18:38.619Z,13.4
2016-05-06T01:18:48.775Z,13.4
2016-05-06T01:18:58.775Z,13.4
2016-05-06T01:19:08.759Z,13.4
2016-05-06T01:19:18.775Z,13.4
2016-05-06T01:19:28.762Z,13.4
2016-05-06T01:19:38.747Z,13.4
2016-05-06T01:19:48.606Z,13.4
2016-05-06T01:19:58.575Z,13.4
2016-05-06T01:20:08.747Z,13.4
2016-05-06T01:20:18.575Z,13.4
2016-05-06T01:20:28.749Z,13.4
2016-05-06T01:20:38.718Z,13.4
2016-05-06T01:20:48.561Z,13.4
2016-05-06T01:20:58.546Z,13.4
2016-05-06T01:21:08.702Z,13.4
2016-05-06T01:21:18.702Z,13.4
2016-05-06T01:21:28.720Z,13.4
2016-05-06T01:21:38.704Z,13.4
2016-05-06T01:21:48.704Z,13.4
2016-05-06T01:21:58.532Z,13.4
2016-05-06T01:22:08.688Z,13.4
2016-05-06T01:22:18.673Z,13.4
2016-05-06T01:22:28.661Z,13.4
2016-05-06T01:22:38.677Z,13.4
2016-05-06T01:22:48.661Z,13.4
2016-05-06T01:22:58.645Z,13.4
2016-05-06T01:23:08.661Z,13.4
2016-05-06T01:23:18.645Z,13.4
2016-05-06T01:23:28.632Z,13.4
2016-05-06T01:23:38.491Z,13.4
2016-05-06T01:23:48.663Z,13.4
2016-05-06T01:23:58.460Z,13.4
2016-05-06T01:24:08.616Z,13.4
2016-05-06T01:24:18.632Z,13.4
2016-05-06T01:24:28.463Z,13.4
2016-05-06T01:24:38.619Z,13.4
2016-05-06T01:24:48.447Z,13.4
2016-05-06T01:24:58.604Z,13.4
2016-05-06T01:25:08.291Z,13.4
2016-05-06T01:25:18.713Z,13.4
2016-05-06T01:25:28.621Z,13.3
2016-05-06T01:25:39.090Z,13.3
2016-05-06T01:25:48.449Z,13.4
2016-05-06T01:25:58.637Z,13.4
2016-05-06T01:26:08.434Z,13.4
2016-05-06T01:26:18.559Z,13.3
2016-05-06T01:26:28.406Z,13.4
2016-05-06T01:26:38.547Z,13.4
2016-05-06T01:26:48.578Z,13.3
2016-05-06T01:26:58.547Z,13.3
2016-05-06T01:27:08.531Z,13.3
2016-05-06T01:27:18.375Z,13.4
2016-05-06T01:27:28.377Z,13.3
2016-05-06T01:27:38.533Z,13.3
2016-05-06T01:27:48.518Z,13.3
2016-05-06T01:27:58.533Z,13.3
2016-05-06T01:28:08.518Z,13.3
2016-05-06T01:28:18.346Z,13.3
2016-05-06T01:28:28.521Z,13.3
2016-05-06T01:28:38.349Z,13.3
2016-05-06T01:28:48.505Z,13.3
2016-05-06T01:28:58.490Z,13.3
2016-05-06T01:29:08.505Z,13.3
2016-05-06T01:29:18.505Z,13.3
2016-05-06T01:29:28.476Z,13.3
2016-05-06T01:29:38.320Z,13.3
2016-05-06T01:29:48.476Z,13.3
2016-05-06T01:29:58.460Z,13.3
2016-05-06T01:30:08.445Z,13.3
2016-05-06T01:30:18.460Z,13.3
2016-05-06T01:30:28.291Z,13.3
2016-05-06T01:30:38.307Z,13.3
2016-05-06T01:30:48.432Z,13.3
2016-05-06T01:30:58.432Z,13.3
2016-05-06T01:31:08.276Z,13.3
2016-05-06T01:31:18.416Z,13.3
2016-05-06T01:31:28.263Z,13.3
2016-05-06T01:31:38.404Z,13.3
2016-05-06T01:31:48.263Z,13.3
2016-05-06T01:31:58.263Z,13.3
2016-05-06T01:32:08.419Z,13.3
2016-05-06T01:32:18.435Z,13.3
2016-05-06T01:32:28.234Z,13.3
2016-05-06T01:32:38.390Z,13.3
2016-05-06T01:32:48.390Z,13.3
2016-05-06T01:32:58.296Z,13.3
2016-05-06T01:33:08.218Z,13.3
2016-05-06T01:33:18.375Z,13.3
2016-05-06T01:33:28.362Z,13.3
2016-05-06T01:33:38.206Z,13.3
2016-05-06T01:33:48.346Z,13.3
2016-05-06T01:33:58.346Z,13.3
2016-05-06T01:34:08.190Z,13.3
2016-05-06T01:34:18.190Z,13.3
2016-05-06T01:34:28.333Z,13.3
2016-05-06T01:34:38.192Z,13.3
2016-05-06T01:34:48.176Z,13.3
2016-05-06T01:34:58.317Z,13.3
2016-05-06T01:35:08.005Z,13.3
2016-05-06T01:35:18.145Z,13.2
2016-05-06T01:35:28.305Z,13.2
2016-05-06T01:35:38.165Z,13.2
2016-05-06T01:35:48.290Z,13.2
2016-05-06T01:35:58.290Z,13.2
2016-05-06T01:36:08.290Z,13.3
2016-05-06T01:36:18.274Z,13.3
2016-05-06T01:36:28.292Z,13.2
2016-05-06T01:36:38.120Z,13.2
2016-05-06T01:36:48.261Z,13.2
2016-05-06T01:36:58.261Z,13.2
2016-05-06T01:37:08.261Z,13.2
2016-05-06T01:37:18.261Z,13.2
2016-05-06T01:37:28.247Z,13.2
2016-05-06T01:37:38.247Z,13.2
2016-05-06T01:37:48.247Z,13.2
2016-05-06T01:37:58.231Z,13.2
2016-05-06T01:38:08.075Z,13.2
2016-05-06T01:38:18.231Z,13.2
2016-05-06T01:38:28.219Z,13.2
2016-05-06T01:38:38.234Z,13.2
2016-05-06T01:38:48.250Z,13.2
2016-05-06T01:38:58.203Z,13.2
2016-05-06T01:39:08.203Z,13.2
2016-05-06T01:39:18.047Z,13.2
2016-05-06T01:39:28.191Z,13.2
2016-05-06T01:39:38.207Z,13.2
2016-05-06T01:39:48.191Z,13.2
2016-05-06T01:39:58.191Z,13.2
2016-05-06T01:40:08.035Z,13.2
2016-05-06T01:40:18.176Z,13.2
2016-05-06T01:40:28.193Z,13.2
2016-05-06T01:40:38.084Z,13.2
2016-05-06T01:40:48.225Z,13.2
2016-05-06T01:40:57.990Z,13.2
2016-05-06T01:41:09.615Z,13.2
2016-05-06T01:41:18.147Z,13.2
2016-05-06T01:41:27.977Z,13.2
2016-05-06T01:41:38.133Z,13.2
2016-05-06T01:41:48.133Z,13.2
2016-05-06T01:41:58.133Z,13.2
2016-05-06T01:42:07.961Z,13.2
2016-05-06T01:42:17.805Z,13.2
2016-05-06T01:42:27.965Z,13.2
2016-05-06T01:42:38.106Z,13.2
2016-05-06T01:42:47.949Z,13.2
2016-05-06T01:42:57.949Z,13.1
2016-05-06T01:43:08.106Z,13.1
2016-05-06T01:43:17.949Z,13.1
2016-05-06T01:43:28.108Z,13.1
2016-05-06T01:43:37.936Z,13.1
2016-05-06T01:43:48.076Z,13.1
2016-05-06T01:43:57.905Z,13.2
2016-05-06T01:44:07.920Z,13.1
2016-05-06T01:44:18.061Z,13.1
2016-05-06T01:44:28.064Z,13.1
2016-05-06T01:44:38.064Z,13.1
2016-05-06T01:44:48.048Z,13.1
2016-05-06T01:44:57.892Z,13.1
2016-05-06T01:45:07.876Z,13.1
2016-05-06T01:45:17.892Z,13.1
2016-05-06T01:45:28.035Z,13.1
2016-05-06T01:45:37.878Z,13.1
2016-05-06T01:45:48.035Z,13.1
2016-05-06T01:45:58.003Z,13.1
2016-05-06T01:46:07.863Z,13.1
2016-05-06T01:46:17.847Z,13.1
2016-05-06T01:46:27.991Z,13.1
2016-05-06T01:46:38.022Z,13.1
2016-05-06T01:46:47.694Z,13.1
2016-05-06T01:46:57.834Z,13.1
2016-05-06T01:47:07.991Z,13.1
2016-05-06T01:47:17.975Z,13.1
2016-05-06T01:47:27.978Z,13.1
2016-05-06T01:47:37.822Z,13.1
2016-05-06T01:47:47.962Z,13.1
2016-05-06T01:47:57.994Z,13.1
2016-05-06T01:48:07.962Z,13.1
2016-05-06T01:48:17.962Z,13.1
2016-05-06T01:48:27.981Z,13.1
2016-05-06T01:48:37.981Z,13.1
2016-05-06T01:48:47.778Z,13.1
2016-05-06T01:48:57.934Z,13.1
2016-05-06T01:49:07.778Z,13.1
2016-05-06T01:49:17.934Z,13.1
2016-05-06T01:49:27.921Z,13.1
2016-05-06T01:49:37.608Z,13.1
2016-05-06T01:49:47.905Z,13.1
2016-05-06T01:49:57.592Z,13.1
2016-05-06T01:50:07.905Z,13.1
2016-05-06T01:50:17.749Z,13.1
2016-05-06T01:50:27.891Z,13.1
2016-05-06T01:50:37.719Z,13.1
2016-05-06T01:50:47.876Z,13.1
2016-05-06T01:50:57.719Z,13.1
2016-05-06T01:51:07.860Z,13.1
2016-05-06T01:51:17.876Z,13.1
2016-05-06T01:51:27.708Z,13.1
2016-05-06T01:51:37.864Z,13.1
2016-05-06T01:51:47.708Z,13.1
2016-05-06T01:51:57.848Z,13.1
2016-05-06T01:52:07.692Z,13.1
2016-05-06T01:52:17.833Z,13.1
2016-05-06T01:52:27.836Z,13.1
2016-05-06T01:52:37.836Z,13.1
2016-05-06T01:52:47.820Z,13.1
2016-05-06T01:52:57.820Z,13.1
2016-05-06T01:53:07.805Z,13.1
2016-05-06T01:53:17.820Z,13.1
2016-05-06T01:53:27.650Z,13.1
2016-05-06T01:53:37.807Z,13.1
2016-05-06T01:53:47.822Z,13.1
2016-05-06T01:53:57.775Z,13.1
2016-05-06T01:54:07.791Z,13.1
2016-05-06T01:54:17.791Z,13.1
2016-05-06T01:54:27.777Z,13.1
2016-05-06T01:54:37.777Z,13.1
2016-05-06T01:54:47.777Z,13.1
2016-05-06T01:54:57.762Z,13.1
2016-05-06T01:55:07.762Z,13.1
2016-05-06T01:55:17.871Z,13.1
2016-05-06T01:55:27.453Z,13.1
2016-05-06T01:55:38.391Z,13.1
2016-05-06T01:55:47.766Z,13.1
2016-05-06T01:55:58.094Z,13.1
2016-05-06T01:56:07.672Z,13.1
2016-05-06T01:56:17.734Z,13.1
2016-05-06T01:56:27.705Z,13.1
2016-05-06T01:56:37.721Z,13.1
2016-05-06T01:56:47.752Z,13.1
2016-05-06T01:56:57.705Z,13.1
2016-05-06T01:57:07.705Z,13.1
2016-05-06T01:57:17.690Z,13.1
2016-05-06T01:57:27.552Z,13
2016-05-06T01:57:37.693Z,13.1
2016-05-06T01:57:47.536Z,13
2016-05-06T01:57:57.693Z,13.1
2016-05-06T01:58:07.677Z,13.1
2016-05-06T01:58:17.364Z,13.1
2016-05-06T01:58:27.663Z,13.1
2016-05-06T01:58:37.663Z,13.1
2016-05-06T01:58:47.663Z,13.1
2016-05-06T01:58:57.663Z,13.1
2016-05-06T01:59:07.648Z,13.1
2016-05-06T01:59:17.648Z,13.1
2016-05-06T01:59:27.494Z,13.1
2016-05-06T01:59:37.651Z,13.1
2016-05-06T01:59:47.635Z,13.1
2016-05-06T01:59:57.635Z,13.1
2016-05-06T02:00:07.635Z,13.1
2016-05-06T02:00:17.619Z,13.1
2016-05-06T02:00:27.622Z,13.1
2016-05-06T02:00:37.451Z,13.1
2016-05-06T02:00:47.622Z,13.1
2016-05-06T02:00:57.607Z,13.1
2016-05-06T02:01:07.435Z,13.1
2016-05-06T02:01:17.435Z,13.1
2016-05-06T02:01:27.578Z,13.1
2016-05-06T02:01:37.421Z,13.1
2016-05-06T02:01:47.578Z,13.1
2016-05-06T02:01:57.437Z,13.1
2016-05-06T02:02:07.562Z,13.1
2016-05-06T02:02:17.562Z,13.1
2016-05-06T02:02:27.549Z,13.1
2016-05-06T02:02:37.549Z,13.1
2016-05-06T02:02:47.377Z,13.1
2016-05-06T02:02:57.393Z,13.1
2016-05-06T02:03:07.549Z,13.1
2016-05-06T02:03:17.549Z,13.1
2016-05-06T02:03:27.536Z,13.1
2016-05-06T02:03:37.379Z,13.1
2016-05-06T02:03:47.520Z,13.1
2016-05-06T02:03:57.504Z,13.1
2016-05-06T02:04:07.504Z,13
2016-05-06T02:04:17.504Z,13.1
2016-05-06T02:04:27.352Z,13.1
2016-05-06T02:04:37.508Z,13.1
2016-05-06T02:04:47.337Z,13.1
2016-05-06T02:04:57.477Z,13.1
2016-05-06T02:05:07.321Z,13
2016-05-06T02:05:17.477Z,13
2016-05-06T02:05:27.479Z,13
2016-05-06T02:05:37.464Z,13
2016-05-06T02:05:47.464Z,13
2016-05-06T02:05:57.479Z,13
2016-05-06T02:06:07.479Z,13
2016-05-06T02:06:17.464Z,13
2016-05-06T02:06:27.451Z,13
2016-05-06T02:06:37.279Z,13
2016-05-06T02:06:46.967Z,13
2016-05-06T02:06:57.435Z,13
2016-05-06T02:07:07.263Z,13
2016-05-06T02:07:17.279Z,13
2016-05-06T02:07:27.265Z,13
2016-05-06T02:07:37.406Z,13
2016-05-06T02:07:47.422Z,13
2016-05-06T02:07:57.390Z,13
2016-05-06T02:08:07.406Z,13
2016-05-06T02:08:17.406Z,13
2016-05-06T02:08:27.393Z,13
2016-05-06T02:08:37.393Z,13
2016-05-06T02:08:47.378Z,13
2016-05-06T02:08:57.378Z,13
2016-05-06T02:09:07.362Z,13
2016-05-06T02:09:17.362Z,13
2016-05-06T02:09:27.365Z,13
2016-05-06T02:09:37.365Z,13
2016-05-06T02:09:47.350Z,13
2016-05-06T02:09:57.334Z,13
2016-05-06T02:10:07.350Z,13
2016-05-06T02:10:17.943Z,13
2016-05-06T02:10:27.789Z,13
2016-05-06T02:10:37.617Z,13
2016-05-06T02:10:47.195Z,13
2016-05-06T02:10:58.242Z,13
2016-05-06T02:11:07.336Z,13
2016-05-06T02:11:17.305Z,13
2016-05-06T02:11:27.308Z,13
2016-05-06T02:11:37.308Z,13
2016-05-06T02:11:47.151Z,13
2016-05-06T02:11:57.292Z,13
2016-05-06T02:12:07.136Z,13
2016-05-06T02:12:17.308Z,13
2016-05-06T02:12:27.279Z,13
2016-05-06T02:12:37.123Z,13
2016-05-06T02:12:46.967Z,12.9
2016-05-06T02:12:57.264Z,13
2016-05-06T02:13:07.092Z,12.9
2016-05-06T02:13:17.264Z,13
2016-05-06T02:13:27.251Z,12.9
2016-05-06T02:13:37.236Z,12.9
2016-05-06T02:13:47.095Z,12.9
2016-05-06T02:13:57.095Z,12.9